Time;durP1;ratioP1;P1;durP2;ratioP2;P2;SDS_P1;SDS_P2;PMS_P1;PMS_P2;Temp;Humidity;BMP_temperature;BMP_pressure;BME280_temperature;BME280_humidity;BME280_pressure;Samples;Min_cycle;Max_cycle;Signal;HPM_P1;HPM_P2
2024/02/03 00:01:02;;;;;;;10.20;5.00;;;;;;;5.00;94.48;96659.95;106616;1303;138221;-87
2024/02/03 00:04:50;;;;;;;8.70;5.60;;;;;;;5.03;94.23;96661.67;106946;1295;22597;-86
2024/02/03 00:08:17;;;;;;;12.40;6.60;;;;;;;5.06;94.37;96647.77;106640;1296;23737;-87
2024/02/03 00:11:44;;;;;;;9.80;5.70;;;;;;;5.07;94.20;96644.08;106587;1297;138723;-87
2024/02/03 00:15:12;;;;;;;8.80;5.50;;;;;;;5.07;94.12;96639.89;106782;1301;22740;-87
2024/02/03 00:18:39;;;;;;;8.50;5.50;;;;;;;5.08;94.18;96634.63;106569;1303;138607;-88
2024/02/03 00:22:06;;;;;;;7.20;5.30;;;;;;;5.09;94.24;96634.92;106672;1302;23295;-87
2024/02/03 00:25:34;;;;;;;6.00;5.40;;;;;;;5.10;94.02;96625.58;106682;1302;137084;-87
2024/02/03 00:29:01;;;;;;;9.60;5.90;;;;;;;5.08;94.13;96628.77;106755;1295;22567;-87
2024/02/03 00:32:28;;;;;;;8.10;5.20;;;;;;;5.09;94.04;96628.73;106641;1302;24162;-88
2024/02/03 00:35:55;;;;;;;7.80;5.30;;;;;;;5.09;94.23;96630.09;106606;1303;138409;-86
2024/02/03 00:39:23;;;;;;;8.20;4.00;;;;;;;5.09;94.40;96630.58;106816;1295;22595;-87
2024/02/03 00:42:50;;;;;;;7.70;4.90;;;;;;;5.09;94.38;96632.48;106635;1298;138719;-87
2024/02/03 00:46:19;;;;;;;8.20;5.10;;;;;;;5.08;94.18;96630.50;106711;1303;22608;-87
2024/02/03 00:49:48;;;;;;;9.50;5.90;;;;;;;5.09;94.18;96621.88;107073;1297;25469;-88
2024/02/03 00:53:15;;;;;;;8.90;5.70;;;;;;;5.08;94.38;96617.78;106835;1301;22676;-87
2024/02/03 00:56:42;;;;;;;6.90;5.60;;;;;;;5.08;94.46;96616.27;106735;1294;22713;-88
2024/02/03 01:00:10;;;;;;;8.50;6.20;;;;;;;5.09;94.60;96627.89;106775;1295;138375;-88
2024/02/03 01:03:37;;;;;;;9.10;6.50;;;;;;;5.09;94.70;96630.83;106874;1301;22630;-88
2024/02/03 01:07:06;;;;;;;8.70;6.40;;;;;;;5.06;94.84;96636.78;106767;1301;138810;-88
2024/02/03 01:10:32;;;;;;;9.40;6.20;;;;;;;5.04;94.96;96652.36;106854;1301;22553;-87
2024/02/03 01:13:59;;;;;;;7.70;5.30;;;;;;;5.03;95.06;96664.60;107020;1301;24048;-88
2024/02/03 01:17:27;;;;;;;10.10;7.10;;;;;;;5.03;95.24;96665.52;106875;1295;22585;-88
2024/02/03 01:20:54;;;;;;;13.90;9.10;;;;;;;5.02;95.22;96662.45;106822;1295;23436;-88
2024/02/03 01:24:23;;;;;;;21.60;10.60;;;;;;;5.01;95.57;96659.63;106915;1301;138702;-88
2024/02/03 01:28:02;;;;;;;11.80;7.60;;;;;;;5.02;95.65;96660.92;106879;1295;23859;-86
2024/02/03 01:31:30;;;;;;;11.90;6.60;;;;;;;5.01;95.71;96656.91;106673;1302;138928;-88
2024/02/03 01:34:58;;;;;;;9.90;6.90;;;;;;;5.01;95.73;96653.88;106805;1297;23931;-88
2024/02/03 01:38:26;;;;;;;9.70;6.60;;;;;;;5.01;95.98;96656.95;106776;1302;22560;-88
2024/02/03 01:41:54;;;;;;;13.00;7.90;;;;;;;5.01;95.74;96650.25;106614;1302;138506;-87
2024/02/03 01:45:21;;;;;;;16.40;9.70;;;;;;;5.00;95.95;96643.64;102879;1301;5388496;-88
2024/02/03 01:48:49;;;;;;;13.30;8.20;;;;;;;4.99;95.99;96630.30;106626;1303;139443;-88
2024/02/03 01:52:17;;;;;;;7.80;6.50;;;;;;;4.99;96.32;96628.76;106816;1301;24075;-87
2024/02/03 01:55:44;;;;;;;8.80;6.60;;;;;;;5.00;95.99;96631.03;106613;1303;138078;-88
2024/02/03 01:59:11;;;;;;;8.10;6.40;;;;;;;5.03;96.44;96631.81;106763;1295;22615;-88
2024/02/03 02:02:40;;;;;;;10.40;6.20;;;;;;;5.07;96.30;96642.63;106756;1302;22667;-88
2024/02/03 02:06:07;;;;;;;8.80;6.10;;;;;;;5.11;96.11;96642.09;106545;1303;138476;-88
2024/02/03 02:09:43;;;;;;;9.20;7.60;;;;;;;5.16;96.26;96641.17;106642;1302;22613;-88
2024/02/03 02:13:12;;;;;;;10.00;7.30;;;;;;;5.21;96.44;96640.86;106690;1300;138514;-88
2024/02/03 02:16:40;;;;;;;13.10;7.80;;;;;;;5.23;96.37;96638.77;106943;1295;23765;-87
2024/02/03 02:20:07;;;;;;;8.80;6.00;;;;;;;5.27;96.30;96634.95;106676;1298;138776;-88
2024/02/03 02:23:34;;;;;;;7.90;5.90;;;;;;;5.30;95.93;96631.59;106741;1301;22567;-88
2024/02/03 02:27:02;;;;;;;7.00;5.00;;;;;;;5.33;96.07;96642.23;106647;1301;22655;-88
2024/02/03 02:30:29;;;;;;;12.40;10.00;;;;;;;5.34;95.80;96634.06;106546;1303;138204;-88
2024/02/03 02:33:56;;;;;;;11.80;8.50;;;;;;;5.38;95.87;96634.48;106839;1302;24419;-88
2024/02/03 02:37:24;;;;;;;11.70;7.00;;;;;;;5.38;95.64;96626.48;106696;1298;138506;-88
2024/02/03 02:40:52;;;;;;;10.70;6.20;;;;;;;5.40;95.33;96625.84;106743;1303;25477;-88
2024/02/03 02:44:20;;;;;;;7.60;5.80;;;;;;;5.41;95.37;96623.36;106794;1303;22579;-88
2024/02/03 02:47:47;;;;;;;6.80;5.70;;;;;;;5.43;95.57;96622.96;106831;1301;22603;-87
2024/02/03 02:51:15;;;;;;;7.00;5.30;;;;;;;5.46;95.58;96624.83;106840;1295;22583;-88
2024/02/03 02:54:42;;;;;;;7.00;5.60;;;;;;;5.48;95.47;96622.33;106905;1298;23277;-88
2024/02/03 02:58:11;;;;;;;6.20;5.10;;;;;;;5.50;95.22;96614.70;106845;1301;24228;-88
2024/02/03 03:01:37;;;;;;;6.60;5.30;;;;;;;5.53;95.31;96610.34;106767;1299;138056;-88
2024/02/03 03:05:07;;;;;;;6.50;5.20;;;;;;;5.55;95.15;96615.02;106967;1301;22781;-89
2024/02/03 03:08:32;;;;;;;8.80;5.60;;;;;;;5.55;95.28;96621.50;106865;1302;22602;-88
2024/02/03 03:12:08;;;;;;;8.50;6.00;;;;;;;5.56;95.06;96623.95;106824;1298;22576;-88
2024/02/03 03:15:35;;;;;;;7.70;5.50;;;;;;;5.57;95.10;96626.13;106858;1302;24211;-87
2024/02/03 03:19:04;;;;;;;7.70;6.40;;;;;;;5.58;95.05;96621.55;106943;1301;138239;-87
2024/02/03 03:22:31;;;;;;;8.20;6.20;;;;;;;5.60;95.00;96624.86;107019;1302;22562;-88
2024/02/03 03:25:59;;;;;;;8.50;5.60;;;;;;;5.59;95.20;96626.43;106721;1295;138272;-88
2024/02/03 03:29:26;;;;;;;8.30;6.20;;;;;;;5.59;94.87;96630.17;106864;1302;22524;-88
2024/02/03 03:32:54;;;;;;;8.30;4.90;;;;;;;5.61;95.31;96630.38;106959;1299;22597;-88
2024/02/03 03:36:21;;;;;;;8.80;7.10;;;;;;;5.63;95.23;96636.33;106683;1297;138193;-88
2024/02/03 03:39:49;;;;;;;7.60;4.90;;;;;;;5.66;95.29;96643.29;106830;1302;22626;-88
2024/02/03 03:43:15;;;;;;;7.10;4.90;;;;;;;5.69;95.35;96646.28;106914;1302;23397;-87
2024/02/03 03:46:43;;;;;;;8.30;5.20;;;;;;;5.70;95.06;96643.13;106818;1302;24241;-88
2024/02/03 03:50:11;;;;;;;7.20;4.70;;;;;;;5.73;95.14;96648.85;106835;1302;22616;-88
2024/02/03 03:53:38;;;;;;;5.70;4.80;;;;;;;5.75;95.07;96649.00;106943;1302;22704;-88
2024/02/03 03:57:06;;;;;;;8.20;5.90;;;;;;;5.77;95.06;96647.12;106910;1302;22625;-88
2024/02/03 04:00:33;;;;;;;7.80;5.10;;;;;;;5.79;95.13;96645.33;106796;1299;138196;-88
2024/02/03 04:04:03;;;;;;;8.60;6.30;;;;;;;5.81;95.22;96650.30;106899;1301;22560;-88
2024/02/03 04:07:30;;;;;;;8.80;5.80;;;;;;;5.83;95.22;96659.58;107115;1295;22678;-88
2024/02/03 04:10:57;;;;;;;7.40;5.60;;;;;;;5.85;95.05;96657.63;106854;1301;24206;-88
2024/02/03 04:14:25;;;;;;;8.00;5.60;;;;;;;5.86;95.16;96661.36;106833;1296;138058;-87
2024/02/03 04:17:53;;;;;;;6.70;5.20;;;;;;;5.87;94.95;96665.92;106832;1302;22707;-88
2024/02/03 04:21:19;;;;;;;5.80;4.90;;;;;;;5.87;95.24;96664.67;106932;1301;22606;-88
2024/02/03 04:24:47;;;;;;;7.30;5.50;;;;;;;5.86;95.10;96664.77;106484;1302;138351;-88
2024/02/03 04:28:14;;;;;;;10.30;5.60;;;;;;;5.87;95.22;96662.86;106892;1301;23919;-88
2024/02/03 04:31:42;;;;;;;6.00;5.20;;;;;;;5.87;95.28;96665.06;106859;1301;138619;-88
2024/02/03 04:35:09;;;;;;;7.20;5.90;;;;;;;5.88;95.51;96666.02;106928;1301;22607;-88
2024/02/03 04:38:35;;;;;;;6.60;5.30;;;;;;;5.89;95.66;96658.48;106841;1301;138106;-88
2024/02/03 04:42:04;;;;;;;7.50;5.60;;;;;;;5.91;95.54;96662.07;106821;1302;23436;-88
2024/02/03 04:45:31;;;;;;;8.20;6.40;;;;;;;5.92;95.70;96652.66;106876;1301;22685;-88
2024/02/03 04:49:01;;;;;;;6.90;5.30;;;;;;;5.93;95.78;96655.38;106803;1301;138415;-88
2024/02/03 04:52:27;;;;;;;9.30;6.00;;;;;;;5.95;95.51;96656.06;106950;1298;22584;-89
2024/02/03 04:55:55;;;;;;;7.70;5.70;;;;;;;5.97;95.53;96658.23;106744;1302;138010;-88
2024/02/03 04:59:22;;;;;;;7.30;5.10;;;;;;;5.97;95.61;96664.41;106943;1301;23211;-87
2024/02/03 05:02:49;;;;;;;6.90;5.10;;;;;;;5.99;95.57;96659.09;106765;1299;138475;-88
2024/02/03 05:06:17;;;;;;;7.80;5.60;;;;;;;6.01;95.60;96655.61;106913;1300;22549;-88
2024/02/03 05:09:44;;;;;;;6.90;5.30;;;;;;;6.03;95.53;96660.16;106859;1295;22564;-88
2024/02/03 05:13:11;;;;;;;8.40;5.40;;;;;;;6.03;95.39;96658.73;106859;1301;138403;-88
2024/02/03 05:16:39;;;;;;;5.70;4.80;;;;;;;6.05;95.18;96660.14;106906;1302;22517;-88
2024/02/03 05:20:06;;;;;;;8.40;5.50;;;;;;;6.06;95.13;96661.21;106822;1301;138068;-88
2024/02/03 05:23:34;;;;;;;6.50;4.80;;;;;;;6.06;95.13;96656.43;106917;1301;25491;-88
2024/02/03 05:27:02;;;;;;;5.80;4.90;;;;;;;6.07;95.20;96659.77;106759;1301;138075;-88
2024/02/03 05:30:29;;;;;;;9.40;5.20;;;;;;;6.07;95.27;96662.80;106914;1301;22565;-88
2024/02/03 05:33:56;;;;;;;6.20;5.30;;;;;;;6.08;94.95;96661.38;106924;1301;23018;-88
2024/02/03 05:37:24;;;;;;;7.20;5.30;;;;;;;6.06;95.07;96654.48;106813;1298;138300;-88
2024/02/03 05:40:51;;;;;;;7.60;4.60;;;;;;;6.06;95.20;96660.05;106793;1301;23381;-86
2024/02/03 05:44:18;;;;;;;9.70;5.10;;;;;;;6.05;95.16;96657.34;106804;1300;138649;-87
2024/02/03 05:47:47;;;;;;;6.60;4.90;;;;;;;6.05;95.43;96668.36;106780;1301;22594;-86
2024/02/03 05:51:15;;;;;;;6.50;4.60;;;;;;;6.06;95.32;96665.66;106629;1303;138162;-87
2024/02/03 05:54:42;;;;;;;6.10;5.40;;;;;;;6.07;95.43;96666.64;106663;1295;22605;-88
2024/02/03 05:58:10;;;;;;;6.30;5.20;;;;;;;6.08;95.42;96670.29;106745;1301;23313;-87
2024/02/03 06:01:37;;;;;;;6.50;5.00;;;;;;;6.10;95.36;96667.83;106603;1303;138211;-87
2024/02/03 06:05:10;;;;;;;7.00;5.30;;;;;;;6.13;95.44;96667.94;106728;1303;22602;-87
2024/02/03 06:08:39;;;;;;;7.30;4.50;;;;;;;6.14;95.39;96670.59;106497;1302;138120;-86
2024/02/03 06:12:05;;;;;;;6.60;4.00;;;;;;;6.16;95.16;96659.13;106719;1300;22700;-86
2024/02/03 06:15:32;;;;;;;5.60;3.90;;;;;;;6.18;95.32;96656.91;106590;1302;136889;-87
2024/02/03 06:18:59;;;;;;;5.40;4.30;;;;;;;6.20;95.25;96659.29;106740;1297;22648;-86
2024/02/03 06:22:26;;;;;;;5.70;4.20;;;;;;;6.22;95.27;96658.23;106741;1303;22593;-86
2024/02/03 06:25:54;;;;;;;6.10;4.50;;;;;;;6.25;95.39;96661.45;106588;1303;138399;-86
2024/02/03 06:29:21;;;;;;;4.60;4.20;;;;;;;6.27;95.15;96662.97;106680;1298;22604;-87
2024/02/03 06:32:49;;;;;;;8.40;5.20;;;;;;;6.29;95.06;96669.48;106829;1294;138703;-86
2024/02/03 06:36:16;;;;;;;5.00;4.50;;;;;;;6.31;95.28;96681.33;106704;1303;26020;-87
2024/02/03 06:39:44;;;;;;;5.70;4.90;;;;;;;6.32;95.20;96681.89;106746;1285;22559;-87
2024/02/03 06:43:35;;;;;;;6.20;4.70;;;;;;;6.34;95.10;96687.39;106832;1303;22711;-87
2024/02/03 06:46:44;;;;;;;7.80;5.00;;;;;;;6.35;95.36;96680.61;106795;1303;23917;-86
2024/02/03 06:50:12;;;;;;;8.70;6.50;;;;;;;6.37;95.27;96681.69;106585;1303;138071;-86
2024/02/03 06:53:41;;;;;;;7.50;4.60;;;;;;;6.37;95.01;96678.02;106666;1300;22584;-87
2024/02/03 06:57:08;;;;;;;6.00;4.30;;;;;;;6.39;95.03;96678.83;106758;1298;136941;-87
2024/02/03 07:00:36;;;;;;;6.00;4.30;;;;;;;6.41;95.23;96678.14;106744;1295;23909;-87
2024/02/03 07:04:03;;;;;;;16.80;7.80;;;;;;;6.42;95.19;96677.98;106674;1302;22584;-86
2024/02/03 07:07:30;;;;;;;6.20;4.50;;;;;;;6.44;95.23;96682.67;106665;1303;23276;-87
2024/02/03 07:11:03;;;;;;;72.00;36.00;;;;;;;6.46;95.34;96677.77;106719;1303;22961;-87
2024/02/03 07:14:31;;;;;;;61.00;23.60;;;;;;;6.48;95.33;96686.35;106687;1297;24022;-87
2024/02/03 07:17:58;;;;;;;20.00;9.90;;;;;;;6.51;95.02;96687.30;106685;1303;23253;-87
2024/02/03 07:21:25;;;;;;;17.20;8.40;;;;;;;6.53;95.10;96688.93;106606;1297;22588;-87
2024/02/03 07:24:53;;;;;;;9.80;5.70;;;;;;;6.57;95.14;96686.83;106552;1303;22599;-87
2024/02/03 07:28:20;;;;;;;12.20;6.50;;;;;;;6.61;94.89;96687.88;106593;1303;23831;-87
2024/02/03 07:31:47;;;;;;;15.50;8.10;;;;;;;6.61;94.75;96685.05;106548;1303;138615;-87
2024/02/03 07:35:14;;;;;;;113.70;54.80;;;;;;;6.63;94.80;96684.54;106612;1298;22613;-86
2024/02/03 07:38:42;;;;;;;47.60;25.40;;;;;;;6.65;94.82;96675.57;106530;1302;138627;-87
2024/02/03 07:42:09;;;;;;;12.20;6.50;;;;;;;6.67;94.51;96672.34;106666;1303;22573;-87
2024/02/03 07:45:36;;;;;;;11.30;5.70;;;;;;;6.69;94.76;96670.89;106566;1303;138241;-87
2024/02/03 07:49:08;;;;;;;7.70;5.40;;;;;;;6.72;94.71;96674.94;106660;1295;24381;-87
2024/02/03 07:52:35;;;;;;;11.90;6.30;;;;;;;6.74;94.50;96670.23;106795;1301;22553;-86
2024/02/03 07:56:02;;;;;;;10.10;5.50;;;;;;;6.77;94.57;96670.09;106600;1294;138871;-87
2024/02/03 07:59:30;;;;;;;21.10;10.70;;;;;;;6.80;94.63;96670.35;106756;1294;22601;-87
2024/02/03 08:02:57;;;;;;;28.40;9.70;;;;;;;6.83;94.49;96672.27;106670;1301;138448;-86
2024/02/03 08:06:25;;;;;;;7.80;5.20;;;;;;;6.86;94.44;96674.20;106712;1295;22530;-87
2024/02/03 08:09:52;;;;;;;9.60;6.00;;;;;;;6.89;94.30;96675.80;106647;1302;138350;-87
2024/02/03 08:13:19;;;;;;;6.20;4.40;;;;;;;6.93;94.24;96675.63;106648;1301;23001;-86
2024/02/03 08:16:46;;;;;;;7.10;4.90;;;;;;;6.98;94.19;96679.77;106733;1301;22553;-87
2024/02/03 08:20:14;;;;;;;13.00;8.60;;;;;;;6.99;94.08;96684.08;106604;1294;138732;-87
2024/02/03 08:23:41;;;;;;;30.40;12.50;;;;;;;7.00;93.79;96679.58;106728;1295;24292;-87
2024/02/03 08:27:00;;;;;;;;;;;;;;;;;;;;;
2024/02/03 08:30:28;;;;;;;17.20;8.80;;;;;;;7.02;93.83;96674.36;106717;1301;22610;-87
2024/02/03 08:33:57;;;;;;;23.70;11.60;;;;;;;7.02;93.97;96669.17;106579;1302;138228;-86
2024/02/03 08:37:23;;;;;;;13.90;7.40;;;;;;;7.03;94.19;96667.91;106749;1302;22579;-86
2024/02/03 08:40:50;;;;;;;6.80;4.60;;;;;;;7.04;93.72;96674.45;106762;1302;22604;-87
2024/02/03 08:44:18;;;;;;;7.60;4.60;;;;;;;7.08;93.93;96675.48;106666;1301;138862;-87
2024/02/03 08:47:45;;;;;;;84.70;28.50;;;;;;;7.10;93.95;96673.14;106847;1301;22592;-87
2024/02/03 08:51:12;;;;;;;15.50;7.90;;;;;;;7.11;93.82;96678.05;106582;1297;138350;-87
2024/02/03 08:54:40;;;;;;;17.60;7.80;;;;;;;7.13;94.21;96676.00;106827;1302;22584;-87
2024/02/03 08:58:07;;;;;;;21.40;8.00;;;;;;;7.16;93.72;96666.92;106770;1301;138352;-88
2024/02/03 09:01:35;;;;;;;28.30;10.20;;;;;;;7.20;93.58;96673.60;106849;1294;23262;-87
2024/02/03 09:05:02;;;;;;;13.30;6.10;;;;;;;7.24;93.58;96677.65;106867;1302;22593;-87
2024/02/03 09:08:30;;;;;;;16.50;7.30;;;;;;;7.26;93.67;96678.89;106616;1302;137357;-85
2024/02/03 09:11:57;;;;;;;54.40;24.80;;;;;;;7.28;93.26;96677.05;107055;1302;25530;-86
2024/02/03 09:15:24;;;;;;;37.60;13.60;;;;;;;7.33;93.50;96676.77;106637;1302;137320;-86
2024/02/03 09:18:51;;;;;;;29.80;10.60;;;;;;;7.37;93.29;96678.23;106678;1302;22635;-86
2024/02/03 09:22:19;;;;;;;13.30;7.10;;;;;;;7.42;93.21;96684.81;106608;1301;138472;-85
2024/02/03 09:25:48;;;;;;;8.20;5.30;;;;;;;7.43;93.08;96676.29;106746;1294;25453;-87
2024/02/03 09:29:15;;;;;;;97.20;42.90;;;;;;;7.43;93.18;96682.59;106764;1301;23138;-87
2024/02/03 09:32:41;;;;;;;17.40;8.70;;;;;;;7.45;92.74;96678.27;106613;1301;138590;-86
2024/02/03 09:36:08;;;;;;;9.30;7.20;;;;;;;7.46;92.97;96678.17;106743;1302;22559;-87
2024/02/03 09:39:37;;;;;;;27.20;14.30;;;;;;;7.47;92.92;96678.08;106644;1302;138261;-87
2024/02/03 09:43:03;;;;;;;15.80;7.90;;;;;;;7.48;93.13;96676.46;106499;1301;22856;-86
2024/02/03 09:46:30;;;;;;;12.60;7.50;;;;;;;7.50;93.32;96676.08;106567;1302;138744;-87
2024/02/03 09:50:02;;;;;;;9.10;5.70;;;;;;;7.54;93.15;96685.30;106747;1298;22558;-87
2024/02/03 09:53:26;;;;;;;212.70;110.70;;;;;;;7.59;93.17;96684.34;106674;1299;22688;-86
2024/02/03 09:56:53;;;;;;;61.30;29.10;;;;;;;7.62;92.95;96677.91;106448;1301;139732;-87
2024/02/03 10:00:21;;;;;;;13.30;6.90;;;;;;;7.65;92.88;96674.16;106664;1302;22556;-86
2024/02/03 10:03:57;;;;;;;56.60;21.70;;;;;;;7.69;93.10;96679.13;106598;1299;139549;-87
2024/02/03 10:07:24;;;;;;;15.50;7.10;;;;;;;7.73;93.01;96672.27;106773;1301;22588;-85
2024/02/03 10:10:51;;;;;;;14.90;7.20;;;;;;;7.78;92.66;96668.30;106680;1302;22616;-87
2024/02/03 10:14:19;;;;;;;22.20;9.70;;;;;;;7.82;92.73;96664.01;106576;1302;138837;-86
2024/02/03 10:17:46;;;;;;;16.40;9.90;;;;;;;7.87;92.23;96670.41;106700;1302;24243;-85
2024/02/03 10:21:17;;;;;;;9.10;5.70;;;;;;;7.91;92.10;96663.10;106645;1298;138797;-86
2024/02/03 10:24:51;;;;;;;9.80;4.70;;;;;;;7.96;92.20;96660.27;106728;1295;22667;-86
2024/02/03 10:31:00;;;;;;;8.70;6.40;;;;;;;8.02;91.76;96651.60;107532;1295;22639;-83
2024/02/03 10:34:27;;;;;;;9.40;5.90;;;;;;;8.02;92.06;96648.94;106712;1301;137148;-85
2024/02/03 10:37:56;;;;;;;43.70;17.80;;;;;;;8.03;91.88;96643.86;106806;1294;24441;-85
2024/02/03 10:41:45;;;;;;;14.80;7.10;;;;;;;8.04;92.12;96645.52;107208;1295;22670;-87
2024/02/03 10:44:54;;;;;;;14.10;6.90;;;;;;;8.04;91.98;96643.55;106968;1301;139168;-88
2024/02/03 10:48:24;;;;;;;8.20;6.00;;;;;;;8.05;91.83;96642.30;107133;1298;25530;-88
2024/02/03 10:51:52;;;;;;;12.20;7.70;;;;;;;8.06;92.46;96650.94;106841;1294;138166;-88
2024/02/03 10:55:19;;;;;;;6.20;4.70;;;;;;;8.09;92.21;96644.77;107089;1298;24282;-89
2024/02/03 10:58:46;;;;;;;252.40;118.20;;;;;;;8.13;92.26;96640.41;106854;1301;138159;-88
2024/02/03 11:02:17;;;;;;;21.50;12.10;;;;;;;8.16;92.02;96643.11;107106;1294;22603;-88
2024/02/03 11:05:44;;;;;;;6.10;4.30;;;;;;;8.16;92.22;96648.70;107180;1298;22597;-88
2024/02/03 11:09:12;;;;;;;9.30;6.40;;;;;;;8.15;92.44;96652.46;106844;1294;138645;-87
2024/02/03 11:12:42;;;;;;;9.20;6.60;;;;;;;8.13;92.24;96655.91;107145;1294;22576;-88
2024/02/03 11:16:12;;;;;;;8.50;5.90;;;;;;;8.13;92.73;96656.11;107133;1301;138020;-87
2024/02/03 11:19:39;;;;;;;9.00;7.50;;;;;;;8.09;93.01;96662.23;107337;1301;22563;-88
2024/02/03 11:23:06;;;;;;;9.10;7.00;;;;;;;8.04;93.59;96663.14;107219;1295;22588;-87
2024/02/03 11:26:34;;;;;;;10.20;8.40;;;;;;;8.01;93.74;96669.13;106978;1297;22587;-88
2024/02/03 11:30:02;;;;;;;9.70;8.30;;;;;;;8.00;94.20;96664.70;107115;1295;23091;-88
2024/02/03 11:33:30;;;;;;;20.20;13.80;;;;;;;7.97;94.17;96669.52;107033;1301;139075;-87
2024/02/03 11:37:00;;;;;;;27.20;14.50;;;;;;;7.91;94.18;96670.65;106918;1297;22658;-89
2024/02/03 11:40:31;;;;;;;18.70;10.70;;;;;;;7.87;94.30;96667.77;107019;1301;137375;-88
2024/02/03 11:43:59;;;;;;;9.80;8.60;;;;;;;7.81;94.70;96666.16;106945;1301;22548;-87
2024/02/03 11:47:26;;;;;;;9.60;7.30;;;;;;;7.75;95.16;96664.87;107150;1301;22622;-88
2024/02/03 11:50:48;;;;;;;11.50;8.20;;;;;;;7.74;95.53;96658.73;107159;1295;138277;-87
2024/02/03 11:54:33;;;;;;;11.70;8.60;;;;;;;7.73;96.08;96654.20;107170;1301;25280;-88
2024/02/03 11:58:01;;;;;;;13.90;11.10;;;;;;;7.76;96.42;96650.91;106919;1294;138619;-87
2024/02/03 12:01:30;;;;;;;11.60;9.10;;;;;;;7.80;96.49;96652.05;107070;1301;22604;-88
2024/02/03 12:04:56;;;;;;;11.90;10.40;;;;;;;7.85;96.99;96651.44;106975;1301;138534;-88
2024/02/03 12:08:44;;;;;;;9.20;7.90;;;;;;;7.92;97.27;96649.34;107011;1301;23336;-88
2024/02/03 12:11:53;;;;;;;9.50;7.90;;;;;;;7.99;97.57;96650.69;107246;1301;22609;-88
2024/02/03 12:15:22;;;;;;;11.90;8.80;;;;;;;8.04;97.61;96646.48;107190;1301;22606;-88
2024/02/03 12:18:49;;;;;;;11.20;8.60;;;;;;;8.11;97.65;96646.13;107329;1301;22582;-88
2024/02/03 12:22:17;;;;;;;10.90;8.70;;;;;;;8.16;97.53;96643.05;107028;1295;139148;-88
2024/02/03 12:25:44;;;;;;;8.60;6.90;;;;;;;8.18;97.50;96646.15;107040;1301;22709;-88
2024/02/03 12:29:22;;;;;;;;;;;;;;;;;;;;;
2024/02/03 12:32:46;;;;;;;10.00;6.90;;;;;;;8.21;97.50;96646.86;107147;1295;22647;-87
2024/02/03 12:36:15;;;;;;;10.90;8.30;;;;;;;8.24;97.46;96650.96;107224;1301;22556;-89
2024/02/03 12:39:43;;;;;;;11.00;7.20;;;;;;;8.29;97.26;96652.36;107233;1301;138736;-87
2024/02/03 12:43:12;;;;;;;13.30;8.70;;;;;;;8.30;97.03;96662.60;107202;1295;22590;-88
2024/02/03 12:46:39;;;;;;;10.60;7.20;;;;;;;8.31;96.90;96658.23;107265;1301;138496;-88
2024/02/03 12:50:07;;;;;;;9.80;7.00;;;;;;;8.30;97.12;96665.42;107173;1297;22685;-88
2024/02/03 12:53:34;;;;;;;9.40;6.70;;;;;;;8.29;97.08;96669.27;107165;1294;22591;-88
2024/02/03 12:57:02;;;;;;;14.60;10.30;;;;;;;8.27;97.20;96670.96;107197;1297;22580;-87
2024/02/03 13:00:29;;;;;;;10.10;8.50;;;;;;;8.26;97.26;96675.46;107244;1294;24037;-88
2024/02/03 13:03:57;;;;;;;9.90;8.40;;;;;;;8.26;97.39;96668.73;107053;1294;138729;-88
2024/02/03 13:07:26;;;;;;;9.30;7.90;;;;;;;8.26;97.49;96670.42;107134;1301;25448;-88
2024/02/03 13:10:53;;;;;;;11.20;9.30;;;;;;;8.28;97.45;96665.92;107071;1294;138249;-88
2024/02/03 13:14:20;;;;;;;8.80;7.70;;;;;;;8.31;97.51;96668.89;107136;1295;23884;-87
2024/02/03 13:17:49;;;;;;;7.50;6.30;;;;;;;8.33;97.75;96666.13;107173;1294;22592;-88
2024/02/03 13:21:15;;;;;;;58.10;37.30;;;;;;;8.37;97.61;96672.96;107249;1301;22875;-88
2024/02/03 13:24:42;;;;;;;228.60;106.10;;;;;;;8.40;97.47;96669.49;107168;1301;22567;-89
2024/02/03 13:28:13;;;;;;;30.20;14.30;;;;;;;8.43;97.54;96670.23;107008;1294;139245;-88
2024/02/03 13:31:41;;;;;;;9.40;6.50;;;;;;;8.45;97.24;96671.62;107182;1297;22591;-87
2024/02/03 13:35:09;;;;;;;12.80;7.30;;;;;;;8.45;97.07;96667.13;107111;1294;137129;-88
2024/02/03 13:38:36;;;;;;;31.70;15.90;;;;;;;8.47;97.18;96670.38;107261;1294;22659;-88
2024/02/03 13:42:03;;;;;;;19.60;12.40;;;;;;;8.52;97.40;96668.48;107147;1297;22623;-88
2024/02/03 13:45:33;;;;;;;12.30;8.70;;;;;;;8.57;96.98;96667.95;103005;1295;5392891;-85
2024/02/03 13:49:05;;;;;;;8.80;7.00;;;;;;;8.61;97.15;96671.63;107074;1299;22643;-85
2024/02/03 13:52:53;;;;;;;;;;;;;;;8.66;96.77;96664.17;106880;1297;137218;-85
2024/02/03 13:55:50;;;;;;;8.80;7.00;;;;;;;8.68;96.57;96655.88;106693;1301;22604;-85
2024/02/03 13:59:17;;;;;;;12.70;8.30;;;;;;;8.69;96.78;96658.70;106919;1298;138208;-85
2024/02/03 14:02:44;;;;;;;52.00;20.10;;;;;;;8.72;96.73;96661.66;106838;1294;22585;-85
2024/02/03 14:06:12;;;;;;;15.30;9.10;;;;;;;8.72;96.48;96655.77;106862;1296;22616;-85
2024/02/03 14:09:41;;;;;;;19.80;10.40;;;;;;;8.72;96.41;96654.41;106605;1301;22633;-85
2024/02/03 14:13:09;;;;;;;11.30;8.20;;;;;;;8.71;96.22;96653.92;106981;1301;22571;-86
2024/02/03 14:16:36;;;;;;;15.40;11.00;;;;;;;8.68;96.14;96654.48;106641;1301;138898;-85
2024/02/03 14:20:09;;;;;;;9.80;8.10;;;;;;;8.63;95.82;96643.61;106847;1301;22554;-85
2024/02/03 14:23:36;;;;;;;9.40;8.30;;;;;;;8.57;95.93;96644.21;106679;1301;138585;-86
2024/02/03 14:27:04;;;;;;;9.00;6.90;;;;;;;8.52;95.99;96641.47;107333;1297;22560;-86
2024/02/03 14:30:32;;;;;;;10.00;7.80;;;;;;;8.50;95.87;96638.63;106820;1301;25449;-86
2024/02/03 14:34:01;;;;;;;8.80;7.10;;;;;;;8.50;96.01;96633.00;106890;1294;22695;-86
2024/02/03 14:37:28;;;;;;;17.10;10.50;;;;;;;8.49;96.18;96637.37;106897;1301;25002;-85
2024/02/03 14:40:58;;;;;;;10.60;6.80;;;;;;;8.48;96.52;96645.36;106776;1301;139092;-85
2024/02/03 14:44:25;;;;;;;7.90;6.20;;;;;;;8.46;96.69;96650.27;107013;1301;22662;-86
2024/02/03 14:47:52;;;;;;;11.40;6.80;;;;;;;8.41;97.29;96656.64;106746;1295;137996;-86
2024/02/03 14:51:20;;;;;;;8.10;6.90;;;;;;;8.36;97.79;96653.35;106800;1294;22606;-86
2024/02/03 14:54:49;;;;;;;6.90;5.00;;;;;;;8.32;97.75;96657.27;106872;1301;22559;-86
2024/02/03 14:58:17;;;;;;;11.10;9.10;;;;;;;8.28;98.16;96665.20;106764;1301;138221;-87
2024/02/03 15:01:44;;;;;;;11.00;7.60;;;;;;;8.25;98.83;96664.45;106742;1301;22547;-85
2024/02/03 15:05:13;;;;;;;26.40;17.70;;;;;;;8.21;99.11;96660.80;106763;1279;138223;-85
2024/02/03 15:08:41;;;;;;;24.30;15.90;;;;;;;8.17;99.77;96668.61;106952;1297;22588;-86
2024/02/03 15:12:08;;;;;;;19.70;14.40;;;;;;;8.13;99.93;96665.10;106793;1301;138775;-86
2024/02/03 15:15:36;;;;;;;29.80;21.40;;;;;;;8.11;100.00;96656.98;106789;1301;22602;-86
2024/02/03 15:19:03;;;;;;;31.40;25.80;;;;;;;8.08;100.00;96651.66;106973;1299;23934;-86
2024/02/03 15:22:30;;;;;;;25.50;22.80;;;;;;;8.04;100.00;96659.10;106654;1300;139156;-86
2024/02/03 15:25:58;;;;;;;15.80;11.70;;;;;;;8.01;100.00;96656.55;106907;1301;22577;-86
2024/02/03 15:29:26;;;;;;;9.70;8.80;;;;;;;7.97;100.00;96654.91;106757;1301;138532;-86
2024/02/03 15:32:55;;;;;;;9.80;7.80;;;;;;;7.91;100.00;96647.23;106931;1300;23030;-86
2024/02/03 15:36:22;;;;;;;42.00;32.90;;;;;;;7.85;100.00;96648.36;106644;1301;137682;-86
2024/02/03 15:39:51;;;;;;;25.30;14.40;;;;;;;7.82;100.00;96656.89;106846;1301;22598;-86
2024/02/03 15:43:28;;;;;;;;;;;;;;;;;;;;;
2024/02/03 15:46:55;;;;;;;9.50;6.30;;;;;;;7.73;100.00;96659.17;107559;1290;137521;-86
2024/02/03 15:50:28;;;;;;;6.40;4.90;;;;;;;7.69;100.00;96667.55;106868;1301;22603;-86
2024/02/03 15:53:55;;;;;;;6.40;5.30;;;;;;;7.65;100.00;96670.38;106731;1301;137251;-86
2024/02/03 15:57:23;;;;;;;7.20;4.80;;;;;;;7.59;100.00;96665.81;106838;1299;23949;-86
2024/02/03 16:00:52;;;;;;;8.60;6.70;;;;;;;7.52;100.00;96671.72;107028;1301;22680;-86
2024/02/03 16:04:19;;;;;;;5.90;4.80;;;;;;;7.46;100.00;96673.84;106795;1302;24218;-86
2024/02/03 16:07:46;;;;;;;5.30;3.60;;;;;;;7.41;100.00;96686.08;106755;1301;22570;-85
2024/02/03 16:11:14;;;;;;;37.70;19.00;;;;;;;7.35;100.00;96689.80;106915;1294;23217;-83
2024/02/03 16:14:47;;;;;;;10.60;6.00;;;;;;;7.32;100.00;96698.24;106907;1301;22563;-84